sensor_id;sensor_type;location;lat;lon;timestamp;pressure;altitude;pressure_sealevel;temperature;humidity
40117;BME280;25829;50.228;18.936;2023-06-01T00:02:24;98793.44;;;10.38;58.50
40117;BME280;25829;50.228;18.936;2023-06-01T00:05:25;98789.41;;;10.35;58.54
40117;BME280;25829;50.228;18.936;2023-06-01T00:08:28;98792.84;;;10.36;58.86
40117;BME280;25829;50.228;18.936;2023-06-01T00:11:29;98795.06;;;10.32;58.88
40117;BME280;25829;50.228;18.936;2023-06-01T00:14:29;98789.16;;;10.30;58.85
40117;BME280;25829;50.228;18.936;2023-06-01T00:17:30;98786.53;;;10.30;59.12
40117;BME280;25829;50.228;18.936;2023-06-01T00:20:32;98787.53;;;10.29;58.73
40117;BME280;25829;50.228;18.936;2023-06-01T00:23:32;98781.84;;;10.26;58.62
40117;BME280;25829;50.228;18.936;2023-06-01T00:26:34;98789.34;;;10.22;58.81
40117;BME280;25829;50.228;18.936;2023-06-01T00:29:35;98799.06;;;10.15;59.03
40117;BME280;25829;50.228;18.936;2023-06-01T00:32:36;98788.47;;;10.08;58.96
40117;BME280;25829;50.228;18.936;2023-06-01T00:35:36;98784.75;;;9.96;59.17
40117;BME280;25829;50.228;18.936;2023-06-01T00:38:37;98790.22;;;9.95;59.36
40117;BME280;25829;50.228;18.936;2023-06-01T00:41:44;98782.50;;;9.93;59.62
40117;BME280;25829;50.228;18.936;2023-06-01T00:44:45;98783.91;;;9.89;59.26
40117;BME280;25829;50.228;18.936;2023-06-01T00:47:46;98777.81;;;9.88;59.22
40117;BME280;25829;50.228;18.936;2023-06-01T00:50:47;98789.81;;;9.91;59.29
40117;BME280;25829;50.228;18.936;2023-06-01T00:53:48;98784.53;;;9.91;59.34
40117;BME280;25829;50.228;18.936;2023-06-01T00:56:49;98777.03;;;9.88;59.58
40117;BME280;25829;50.228;18.936;2023-06-01T00:59:50;98778.03;;;9.87;59.18
40117;BME280;25829;50.228;18.936;2023-06-01T01:02:51;98778.59;;;9.82;59.57
40117;BME280;25829;50.228;18.936;2023-06-01T01:05:59;98784.88;;;9.81;59.81
40117;BME280;25829;50.228;18.936;2023-06-01T01:13:05;98773.06;;;9.71;59.86
40117;BME280;25829;50.228;18.936;2023-06-01T01:16:28;98782.81;;;9.70;60.78
40117;BME280;25829;50.228;18.936;2023-06-01T01:23:05;98782.72;;;9.57;60.79
40117;BME280;25829;50.228;18.936;2023-06-01T01:29:46;98784.06;;;9.46;60.54
40117;BME280;25829;50.228;18.936;2023-06-01T01:32:49;98778.94;;;9.38;60.46
40117;BME280;25829;50.228;18.936;2023-06-01T01:35:51;98775.81;;;9.28;60.51
40117;BME280;25829;50.228;18.936;2023-06-01T01:38:52;98784.09;;;9.25;60.54
40117;BME280;25829;50.228;18.936;2023-06-01T01:41:53;98772.75;;;9.24;60.77
40117;BME280;25829;50.228;18.936;2023-06-01T01:44:54;98770.50;;;9.21;61.00
40117;BME280;25829;50.228;18.936;2023-06-01T01:48:00;98776.13;;;9.18;61.03
40117;BME280;25829;50.228;18.936;2023-06-01T01:51:14;98768.03;;;9.20;61.12
40117;BME280;25829;50.228;18.936;2023-06-01T01:54:17;98774.31;;;9.19;60.83
40117;BME280;25829;50.228;18.936;2023-06-01T01:57:19;98775.50;;;9.16;60.94
40117;BME280;25829;50.228;18.936;2023-06-01T02:00:22;98767.13;;;9.06;61.18
40117;BME280;25829;50.228;18.936;2023-06-01T02:03:23;98769.69;;;8.99;61.57
40117;BME280;25829;50.228;18.936;2023-06-01T02:06:24;98761.78;;;8.99;61.34
40117;BME280;25829;50.228;18.936;2023-06-01T02:09:25;98762.16;;;8.96;61.12
40117;BME280;25829;50.228;18.936;2023-06-01T02:12:25;98767.00;;;8.92;61.44
40117;BME280;25829;50.228;18.936;2023-06-01T02:15:26;98760.75;;;8.93;61.43
40117;BME280;25829;50.228;18.936;2023-06-01T02:18:27;98761.56;;;8.94;61.41
40117;BME280;25829;50.228;18.936;2023-06-01T02:21:30;98755.06;;;8.90;61.32
40117;BME280;25829;50.228;18.936;2023-06-01T02:24:35;98754.06;;;8.91;60.97
40117;BME280;25829;50.228;18.936;2023-06-01T02:27:36;98744.72;;;8.88;61.67
40117;BME280;25829;50.228;18.936;2023-06-01T02:30:36;98747.53;;;8.87;61.61
40117;BME280;25829;50.228;18.936;2023-06-01T02:33:38;98745.09;;;8.85;61.64
40117;BME280;25829;50.228;18.936;2023-06-01T02:36:38;98747.09;;;8.83;61.83
40117;BME280;25829;50.228;18.936;2023-06-01T02:39:39;98750.28;;;8.79;61.40
40117;BME280;25829;50.228;18.936;2023-06-01T02:42:46;98744.78;;;8.74;61.76
40117;BME280;25829;50.228;18.936;2023-06-01T02:45:47;98739.09;;;8.70;61.68
40117;BME280;25829;50.228;18.936;2023-06-01T02:48:51;98740.72;;;8.71;61.23
40117;BME280;25829;50.228;18.936;2023-06-01T02:51:53;98733.84;;;8.70;61.44
40117;BME280;25829;50.228;18.936;2023-06-01T02:54:57;98736.19;;;8.65;61.69
40117;BME280;25829;50.228;18.936;2023-06-01T02:58:27;98735.16;;;8.59;62.02
40117;BME280;25829;50.228;18.936;2023-06-01T03:01:52;98733.06;;;8.55;61.87
40117;BME280;25829;50.228;18.936;2023-06-01T03:04:53;98731.22;;;8.49;62.13
40117;BME280;25829;50.228;18.936;2023-06-01T03:07:54;98729.75;;;8.46;62.38
40117;BME280;25829;50.228;18.936;2023-06-01T03:11:04;98734.81;;;8.48;62.12
40117;BME280;25829;50.228;18.936;2023-06-01T03:14:09;98736.47;;;8.49;62.95
40117;BME280;25829;50.228;18.936;2023-06-01T03:17:14;98730.00;;;8.51;62.64
40117;BME280;25829;50.228;18.936;2023-06-01T03:20:15;98731.66;;;8.52;62.96
40117;BME280;25829;50.228;18.936;2023-06-01T03:23:16;98729.44;;;8.56;62.67
40117;BME280;25829;50.228;18.936;2023-06-01T03:26:17;98724.19;;;8.56;62.94
40117;BME280;25829;50.228;18.936;2023-06-01T03:29:24;98724.81;;;8.58;62.78
40117;BME280;25829;50.228;18.936;2023-06-01T03:32:25;98733.34;;;8.60;63.04
40117;BME280;25829;50.228;18.936;2023-06-01T03:35:28;98725.06;;;8.63;62.76
40117;BME280;25829;50.228;18.936;2023-06-01T03:38:29;98720.69;;;8.70;62.42
40117;BME280;25829;50.228;18.936;2023-06-01T03:41:31;98718.66;;;8.72;62.39
40117;BME280;25829;50.228;18.936;2023-06-01T03:44:32;98717.31;;;8.76;63.00
40117;BME280;25829;50.228;18.936;2023-06-01T03:47:33;98715.91;;;8.80;62.66
40117;BME280;25829;50.228;18.936;2023-06-01T03:50:34;98712.91;;;8.83;63.06
40117;BME280;25829;50.228;18.936;2023-06-01T03:53:37;98717.97;;;8.85;62.70
40117;BME280;25829;50.228;18.936;2023-06-01T03:56:39;98721.66;;;8.90;63.06
40117;BME280;25829;50.228;18.936;2023-06-01T03:59:40;98720.28;;;8.95;63.32
40117;BME280;25829;50.228;18.936;2023-06-01T04:02:41;98716.69;;;9.02;63.21
40117;BME280;25829;50.228;18.936;2023-06-01T04:05:42;98715.72;;;9.10;62.95
40117;BME280;25829;50.228;18.936;2023-06-01T04:08:50;98726.50;;;9.15;63.60
40117;BME280;25829;50.228;18.936;2023-06-01T04:11:56;98716.78;;;9.15;63.52
40117;BME280;25829;50.228;18.936;2023-06-01T04:15:00;98710.56;;;9.23;63.73
40117;BME280;25829;50.228;18.936;2023-06-01T04:18:01;98716.16;;;9.35;63.64
40117;BME280;25829;50.228;18.936;2023-06-01T04:21:12;98722.47;;;9.47;63.78
40117;BME280;25829;50.228;18.936;2023-06-01T04:24:12;98721.94;;;9.58;63.99
40117;BME280;25829;50.228;18.936;2023-06-01T04:27:13;98719.97;;;9.67;63.97
40117;BME280;25829;50.228;18.936;2023-06-01T04:30:16;98720.84;;;9.81;63.88
40117;BME280;25829;50.228;18.936;2023-06-01T04:33:18;98713.38;;;9.91;63.99
40117;BME280;25829;50.228;18.936;2023-06-01T04:36:20;98704.09;;;10.02;63.94
40117;BME280;25829;50.228;18.936;2023-06-01T04:39:24;98703.94;;;10.17;64.11
40117;BME280;25829;50.228;18.936;2023-06-01T04:42:26;98698.69;;;10.30;64.28
40117;BME280;25829;50.228;18.936;2023-06-01T04:45:26;98706.63;;;10.43;64.41
40117;BME280;25829;50.228;18.936;2023-06-01T04:48:27;98695.72;;;10.59;64.62
40117;BME280;25829;50.228;18.936;2023-06-01T04:51:33;98703.84;;;10.78;63.95
40117;BME280;25829;50.228;18.936;2023-06-01T04:54:37;98696.34;;;10.95;63.91
40117;BME280;25829;50.228;18.936;2023-06-01T04:57:37;98692.84;;;11.14;63.76
40117;BME280;25829;50.228;18.936;2023-06-01T05:00:39;98689.59;;;11.32;63.61
40117;BME280;25829;50.228;18.936;2023-06-01T05:03:44;98692.16;;;11.52;63.55
40117;BME280;25829;50.228;18.936;2023-06-01T05:06:46;98687.47;;;11.67;63.35
40117;BME280;25829;50.228;18.936;2023-06-01T05:09:47;98692.25;;;11.84;63.12
40117;BME280;25829;50.228;18.936;2023-06-01T05:12:48;98685.50;;;12.01;62.57
40117;BME280;25829;50.228;18.936;2023-06-01T05:15:51;98682.75;;;12.21;62.74
40117;BME280;25829;50.228;18.936;2023-06-01T05:18:55;98689.97;;;12.39;62.08
40117;BME280;25829;50.228;18.936;2023-06-01T05:22:03;98681.75;;;12.54;62.13
40117;BME280;25829;50.228;18.936;2023-06-01T05:25:04;98688.34;;;12.69;61.86
40117;BME280;25829;50.228;18.936;2023-06-01T05:28:14;98677.81;;;12.88;61.36
40117;BME280;25829;50.228;18.936;2023-06-01T05:31:15;98679.88;;;13.04;60.99
40117;BME280;25829;50.228;18.936;2023-06-01T05:34:30;98678.56;;;13.20;60.22
40117;BME280;25829;50.228;18.936;2023-06-01T05:37:30;98674.38;;;13.31;59.79
40117;BME280;25829;50.228;18.936;2023-06-01T05:40:31;98677.81;;;13.50;59.15
40117;BME280;25829;50.228;18.936;2023-06-01T05:43:35;98669.09;;;13.67;58.68
40117;BME280;25829;50.228;18.936;2023-06-01T05:46:42;98666.84;;;13.83;58.05
40117;BME280;25829;50.228;18.936;2023-06-01T05:49:43;98669.09;;;13.98;57.89
40117;BME280;25829;50.228;18.936;2023-06-01T05:52:50;98665.66;;;14.09;57.54
40117;BME280;25829;50.228;18.936;2023-06-01T05:55:51;98661.22;;;14.21;57.49
40117;BME280;25829;50.228;18.936;2023-06-01T05:58:52;98660.81;;;14.36;57.19
40117;BME280;25829;50.228;18.936;2023-06-01T06:01:56;98669.53;;;14.55;57.10
40117;BME280;25829;50.228;18.936;2023-06-01T06:04:58;98665.97;;;14.73;56.93
40117;BME280;25829;50.228;18.936;2023-06-01T06:07:59;98664.47;;;14.89;56.92
40117;BME280;25829;50.228;18.936;2023-06-01T06:10:59;98668.66;;;15.08;56.48
40117;BME280;25829;50.228;18.936;2023-06-01T06:14:09;98663.66;;;15.23;56.48
40117;BME280;25829;50.228;18.936;2023-06-01T06:17:11;98656.63;;;15.41;55.71
40117;BME280;25829;50.228;18.936;2023-06-01T06:20:12;98664.47;;;15.59;55.58
40117;BME280;25829;50.228;18.936;2023-06-01T06:23:18;98664.97;;;15.85;55.34
40117;BME280;25829;50.228;18.936;2023-06-01T06:26:19;98666.44;;;16.21;55.08
40117;BME280;25829;50.228;18.936;2023-06-01T06:29:20;98657.16;;;16.69;54.70
40117;BME280;25829;50.228;18.936;2023-06-01T06:32:21;98657.03;;;17.31;53.72
40117;BME280;25829;50.228;18.936;2023-06-01T06:35:22;98661.00;;;17.95;52.92
40117;BME280;25829;50.228;18.936;2023-06-01T06:38:23;98649.47;;;18.43;51.82
40117;BME280;25829;50.228;18.936;2023-06-01T06:41:23;98650.22;;;18.71;50.97
40117;BME280;25829;50.228;18.936;2023-06-01T06:44:25;98637.00;;;18.86;49.98
40117;BME280;25829;50.228;18.936;2023-06-01T06:47:26;98638.63;;;18.92;48.99
40117;BME280;25829;50.228;18.936;2023-06-01T06:50:28;98652.31;;;18.96;48.92
40117;BME280;25829;50.228;18.936;2023-06-01T06:53:29;98641.63;;;19.01;48.72
40117;BME280;25829;50.228;18.936;2023-06-01T06:56:29;98647.81;;;19.06;48.83
40117;BME280;25829;50.228;18.936;2023-06-01T06:59:40;98635.31;;;19.17;48.22
40117;BME280;25829;50.228;18.936;2023-06-01T07:02:41;98633.75;;;19.26;48.11
40117;BME280;25829;50.228;18.936;2023-06-01T07:05:44;98630.63;;;19.40;47.20
40117;BME280;25829;50.228;18.936;2023-06-01T07:08:45;98625.59;;;19.53;47.15
40117;BME280;25829;50.228;18.936;2023-06-01T07:11:46;98626.75;;;19.73;46.60
40117;BME280;25829;50.228;18.936;2023-06-01T07:14:48;98628.13;;;19.91;46.36
40117;BME280;25829;50.228;18.936;2023-06-01T07:17:48;98633.53;;;20.06;45.99
40117;BME280;25829;50.228;18.936;2023-06-01T07:20:49;98624.44;;;20.22;45.08
40117;BME280;25829;50.228;18.936;2023-06-01T07:23:50;98615.84;;;20.36;45.04
40117;BME280;25829;50.228;18.936;2023-06-01T07:26:53;98624.19;;;20.49;45.08
40117;BME280;25829;50.228;18.936;2023-06-01T07:29:55;98633.88;;;20.61;44.67
40117;BME280;25829;50.228;18.936;2023-06-01T07:32:56;98627.94;;;20.69;44.08
40117;BME280;25829;50.228;18.936;2023-06-01T07:35:57;98628.19;;;20.77;44.13
40117;BME280;25829;50.228;18.936;2023-06-01T07:38:58;98626.31;;;20.88;43.76
40117;BME280;25829;50.228;18.936;2023-06-01T07:41:59;98617.72;;;20.91;43.59
40117;BME280;25829;50.228;18.936;2023-06-01T07:45:00;98617.44;;;20.88;43.30
40117;BME280;25829;50.228;18.936;2023-06-01T07:48:01;98623.91;;;20.87;42.75
40117;BME280;25829;50.228;18.936;2023-06-01T07:51:02;98615.59;;;20.88;42.76
40117;BME280;25829;50.228;18.936;2023-06-01T07:54:03;98620.13;;;20.93;42.85
40117;BME280;25829;50.228;18.936;2023-06-01T07:57:05;98619.06;;;20.99;42.26
40117;BME280;25829;50.228;18.936;2023-06-01T08:00:06;98619.31;;;21.03;42.05
40117;BME280;25829;50.228;18.936;2023-06-01T08:03:12;98623.31;;;21.10;41.98
40117;BME280;25829;50.228;18.936;2023-06-01T08:06:14;98612.84;;;21.19;41.58
40117;BME280;25829;50.228;18.936;2023-06-01T08:09:15;98623.84;;;21.22;41.33
40117;BME280;25829;50.228;18.936;2023-06-01T08:12:16;98604.50;;;21.26;40.73
40117;BME280;25829;50.228;18.936;2023-06-01T08:15:16;98609.88;;;21.31;40.64
40117;BME280;25829;50.228;18.936;2023-06-01T08:18:18;98612.22;;;21.42;40.29
40117;BME280;25829;50.228;18.936;2023-06-01T08:21:20;98613.53;;;21.55;40.15
40117;BME280;25829;50.228;18.936;2023-06-01T08:24:20;98599.75;;;21.67;39.69
40117;BME280;25829;50.228;18.936;2023-06-01T08:27:25;98609.59;;;21.87;38.63
40117;BME280;25829;50.228;18.936;2023-06-01T08:30:28;98600.09;;;22.05;38.69
40117;BME280;25829;50.228;18.936;2023-06-01T08:33:29;98592.59;;;22.41;38.72
40117;BME280;25829;50.228;18.936;2023-06-01T08:36:30;98587.91;;;23.10;38.19
40117;BME280;25829;50.228;18.936;2023-06-01T08:39:31;98582.66;;;24.04;37.62
40117;BME280;25829;50.228;18.936;2023-06-01T08:46:10;98582.53;;;26.30;35.69
40117;BME280;25829;50.228;18.936;2023-06-01T08:49:13;98581.88;;;27.09;34.76
40117;BME280;25829;50.228;18.936;2023-06-01T08:52:19;98572.31;;;27.78;33.75
40117;BME280;25829;50.228;18.936;2023-06-01T08:55:21;98578.34;;;28.44;33.98
40117;BME280;25829;50.228;18.936;2023-06-01T08:58:22;98571.09;;;29.13;33.75
40117;BME280;25829;50.228;18.936;2023-06-01T09:01:24;98561.75;;;29.73;33.31
40117;BME280;25829;50.228;18.936;2023-06-01T09:04:26;98568.75;;;30.16;31.94
40117;BME280;25829;50.228;18.936;2023-06-01T09:07:27;98560.59;;;30.49;31.60
40117;BME280;25829;50.228;18.936;2023-06-01T09:10:28;98564.84;;;30.83;31.47
40117;BME280;25829;50.228;18.936;2023-06-01T09:13:39;98558.28;;;31.09;29.21
40117;BME280;25829;50.228;18.936;2023-06-01T09:16:41;98558.41;;;31.25;30.94
40117;BME280;25829;50.228;18.936;2023-06-01T09:19:45;98546.78;;;31.52;30.20
40117;BME280;25829;50.228;18.936;2023-06-01T09:22:46;98550.16;;;31.62;30.26
40117;BME280;25829;50.228;18.936;2023-06-01T09:25:55;98547.69;;;31.85;30.27
40117;BME280;25829;50.228;18.936;2023-06-01T09:29:06;98545.97;;;32.20;29.93
40117;BME280;25829;50.228;18.936;2023-06-01T09:32:07;98541.00;;;32.38;29.71
40117;BME280;25829;50.228;18.936;2023-06-01T09:35:08;98542.59;;;32.55;29.04
40117;BME280;25829;50.228;18.936;2023-06-01T09:38:09;98532.13;;;32.57;28.78
40117;BME280;25829;50.228;18.936;2023-06-01T09:41:10;98539.16;;;32.42;28.10
40117;BME280;25829;50.228;18.936;2023-06-01T09:44:12;98534.34;;;32.23;28.51
40117;BME280;25829;50.228;18.936;2023-06-01T09:47:14;98538.84;;;32.16;28.72
40117;BME280;25829;50.228;18.936;2023-06-01T09:53:41;98527.34;;;31.54;28.32
40117;BME280;25829;50.228;18.936;2023-06-01T09:56:43;98536.00;;;30.95;29.55
40117;BME280;25829;50.228;18.936;2023-06-01T09:59:46;98535.47;;;30.44;29.26
40117;BME280;25829;50.228;18.936;2023-06-01T10:02:47;98538.41;;;29.93;29.43
40117;BME280;25829;50.228;18.936;2023-06-01T10:05:49;98521.38;;;29.42;29.21
40117;BME280;25829;50.228;18.936;2023-06-01T10:08:51;98520.22;;;28.92;29.01
40117;BME280;25829;50.228;18.936;2023-06-01T10:11:54;98514.47;;;28.47;29.12
40117;BME280;25829;50.228;18.936;2023-06-01T10:14:56;98511.66;;;28.17;29.82
40117;BME280;25829;50.228;18.936;2023-06-01T10:17:58;98500.88;;;27.82;29.48
40117;BME280;25829;50.228;18.936;2023-06-01T10:20:59;98515.81;;;27.45;29.71
40117;BME280;25829;50.228;18.936;2023-06-01T10:24:00;98511.47;;;27.09;29.60
40117;BME280;25829;50.228;18.936;2023-06-01T10:27:05;98505.16;;;26.83;29.13
40117;BME280;25829;50.228;18.936;2023-06-01T10:30:09;98508.88;;;26.56;29.13
40117;BME280;25829;50.228;18.936;2023-06-01T10:33:10;98494.25;;;26.34;29.04
40117;BME280;25829;50.228;18.936;2023-06-01T10:36:10;98490.94;;;26.06;29.28
40117;BME280;25829;50.228;18.936;2023-06-01T10:39:31;98489.28;;;25.97;29.27
40117;BME280;25829;50.228;18.936;2023-06-01T10:42:36;98484.84;;;25.78;29.24
40117;BME280;25829;50.228;18.936;2023-06-01T10:45:41;98480.53;;;25.55;30.15
40117;BME280;25829;50.228;18.936;2023-06-01T10:49:01;98480.09;;;25.39;29.41
40117;BME280;25829;50.228;18.936;2023-06-01T10:52:29;98472.81;;;25.26;29.43
40117;BME280;25829;50.228;18.936;2023-06-01T10:55:30;98472.03;;;25.11;30.03
40117;BME280;25829;50.228;18.936;2023-06-01T10:58:31;98468.75;;;25.00;30.01
40117;BME280;25829;50.228;18.936;2023-06-01T11:01:36;98471.34;;;24.92;30.51
40117;BME280;25829;50.228;18.936;2023-06-01T11:04:37;98470.75;;;24.81;30.47
40117;BME280;25829;50.228;18.936;2023-06-01T11:07:38;98473.25;;;24.77;30.57
40117;BME280;25829;50.228;18.936;2023-06-01T11:14:08;98459.66;;;24.69;30.32
40117;BME280;25829;50.228;18.936;2023-06-01T11:17:28;98453.78;;;24.67;29.79
40117;BME280;25829;50.228;18.936;2023-06-01T11:20:37;98450.88;;;24.63;30.09
40117;BME280;25829;50.228;18.936;2023-06-01T11:23:44;98447.66;;;24.61;30.95
40117;BME280;25829;50.228;18.936;2023-06-01T11:26:47;98442.06;;;24.58;30.54
40117;BME280;25829;50.228;18.936;2023-06-01T11:29:53;98446.97;;;24.56;30.81
40117;BME280;25829;50.228;18.936;2023-06-01T11:32:54;98455.84;;;24.56;30.54
40117;BME280;25829;50.228;18.936;2023-06-01T11:36:00;98440.94;;;24.59;30.88
40117;BME280;25829;50.228;18.936;2023-06-01T11:39:02;98443.63;;;24.59;30.94
40117;BME280;25829;50.228;18.936;2023-06-01T11:42:07;98434.06;;;24.52;31.24
40117;BME280;25829;50.228;18.936;2023-06-01T11:45:14;98430.38;;;24.48;30.98
40117;BME280;25829;50.228;18.936;2023-06-01T11:48:16;98426.88;;;24.48;31.45
40117;BME280;25829;50.228;18.936;2023-06-01T11:51:19;98423.50;;;24.42;30.75
40117;BME280;25829;50.228;18.936;2023-06-01T11:54:27;98424.38;;;24.38;30.52
40117;BME280;25829;50.228;18.936;2023-06-01T11:57:29;98409.00;;;24.38;31.10
40117;BME280;25829;50.228;18.936;2023-06-01T12:00:30;98423.78;;;24.41;31.20
40117;BME280;25829;50.228;18.936;2023-06-01T12:03:31;98412.78;;;24.37;31.40
40117;BME280;25829;50.228;18.936;2023-06-01T12:06:32;98407.09;;;24.39;30.98
40117;BME280;25829;50.228;18.936;2023-06-01T12:09:34;98402.78;;;24.38;31.10
40117;BME280;25829;50.228;18.936;2023-06-01T12:12:45;98406.78;;;24.40;31.56
40117;BME280;25829;50.228;18.936;2023-06-01T12:15:51;98403.00;;;24.41;31.26
40117;BME280;25829;50.228;18.936;2023-06-01T12:18:52;98403.91;;;24.37;30.99
40117;BME280;25829;50.228;18.936;2023-06-01T12:21:56;98391.81;;;24.34;31.21
40117;BME280;25829;50.228;18.936;2023-06-01T12:25:04;98396.91;;;24.36;30.89
40117;BME280;25829;50.228;18.936;2023-06-01T12:28:08;98399.09;;;24.34;30.63
40117;BME280;25829;50.228;18.936;2023-06-01T12:31:12;98391.22;;;24.23;31.18
40117;BME280;25829;50.228;18.936;2023-06-01T12:34:16;98373.25;;;24.19;31.03
40117;BME280;25829;50.228;18.936;2023-06-01T12:37:18;98374.03;;;24.19;30.90
40117;BME280;25829;50.228;18.936;2023-06-01T12:40:22;98371.88;;;24.21;30.81
40117;BME280;25829;50.228;18.936;2023-06-01T12:43:27;98374.75;;;24.25;30.90
40117;BME280;25829;50.228;18.936;2023-06-01T12:46:29;98373.66;;;24.26;30.65
40117;BME280;25829;50.228;18.936;2023-06-01T12:49:33;98374.66;;;24.30;30.95
40117;BME280;25829;50.228;18.936;2023-06-01T12:52:39;98369.75;;;24.32;30.58
40117;BME280;25829;50.228;18.936;2023-06-01T12:55:41;98376.25;;;24.31;30.78
40117;BME280;25829;50.228;18.936;2023-06-01T12:58:42;98379.44;;;24.33;30.54
40117;BME280;25829;50.228;18.936;2023-06-01T13:01:44;98383.25;;;24.32;30.10
40117;BME280;25829;50.228;18.936;2023-06-01T13:04:45;98368.97;;;24.32;30.95
40117;BME280;25829;50.228;18.936;2023-06-01T13:07:46;98366.28;;;24.32;30.68
40117;BME280;25829;50.228;18.936;2023-06-01T13:10:46;98360.97;;;24.26;30.95
40117;BME280;25829;50.228;18.936;2023-06-01T13:13:47;98363.38;;;24.28;30.65
40117;BME280;25829;50.228;18.936;2023-06-01T13:16:51;98358.47;;;24.30;30.86
40117;BME280;25829;50.228;18.936;2023-06-01T13:19:55;98353.06;;;24.30;30.67
40117;BME280;25829;50.228;18.936;2023-06-01T13:22:56;98368.66;;;24.33;30.82
40117;BME280;25829;50.228;18.936;2023-06-01T13:25:57;98351.56;;;24.38;30.56
40117;BME280;25829;50.228;18.936;2023-06-01T13:29:01;98355.88;;;24.39;30.70
40117;BME280;25829;50.228;18.936;2023-06-01T13:32:02;98348.06;;;24.37;30.80
40117;BME280;25829;50.228;18.936;2023-06-01T13:35:03;98339.38;;;24.40;30.97
40117;BME280;25829;50.228;18.936;2023-06-01T13:38:07;98344.50;;;24.42;30.72
40117;BME280;25829;50.228;18.936;2023-06-01T13:45:06;98339.09;;;24.42;30.98
40117;BME280;25829;50.228;18.936;2023-06-01T13:48:09;98336.69;;;24.40;30.87
40117;BME280;25829;50.228;18.936;2023-06-01T13:51:10;98326.50;;;24.37;31.01
40117;BME280;25829;50.228;18.936;2023-06-01T13:54:11;98322.34;;;24.31;30.92
40117;BME280;25829;50.228;18.936;2023-06-01T13:57:13;98323.81;;;24.23;30.73
40117;BME280;25829;50.228;18.936;2023-06-01T14:00:14;98316.66;;;24.19;30.80
40117;BME280;25829;50.228;18.936;2023-06-01T14:03:20;98310.75;;;24.17;30.63
40117;BME280;25829;50.228;18.936;2023-06-01T14:06:21;98319.34;;;24.19;30.83
40117;BME280;25829;50.228;18.936;2023-06-01T14:09:22;98313.34;;;24.22;30.26
40117;BME280;25829;50.228;18.936;2023-06-01T14:12:26;98300.16;;;24.20;30.11
40117;BME280;25829;50.228;18.936;2023-06-01T14:15:28;98301.19;;;24.11;30.43
40117;BME280;25829;50.228;18.936;2023-06-01T14:21:40;98304.94;;;23.96;29.90
40117;BME280;25829;50.228;18.936;2023-06-01T14:24:40;98305.16;;;23.99;30.26
40117;BME280;25829;50.228;18.936;2023-06-01T14:27:43;98293.59;;;23.99;30.16
40117;BME280;25829;50.228;18.936;2023-06-01T14:30:43;98296.78;;;24.01;30.65
40117;BME280;25829;50.228;18.936;2023-06-01T14:33:45;98289.69;;;24.05;30.92
40117;BME280;25829;50.228;18.936;2023-06-01T14:36:46;98291.81;;;24.08;30.50
40117;BME280;25829;50.228;18.936;2023-06-01T14:39:47;98281.03;;;24.08;30.61
40117;BME280;25829;50.228;18.936;2023-06-01T14:42:48;98283.59;;;24.13;30.61
40117;BME280;25829;50.228;18.936;2023-06-01T14:45:48;98281.41;;;24.15;30.69
40117;BME280;25829;50.228;18.936;2023-06-01T14:48:49;98280.63;;;24.15;30.64
40117;BME280;25829;50.228;18.936;2023-06-01T14:51:50;98280.09;;;24.13;30.42
40117;BME280;25829;50.228;18.936;2023-06-01T14:54:54;98279.25;;;24.03;30.69
40117;BME280;25829;50.228;18.936;2023-06-01T14:57:55;98273.16;;;23.98;30.77
40117;BME280;25829;50.228;18.936;2023-06-01T15:00:56;98270.44;;;23.98;30.72
40117;BME280;25829;50.228;18.936;2023-06-01T15:03:58;98268.00;;;23.96;31.02
40117;BME280;25829;50.228;18.936;2023-06-01T15:06:59;98260.22;;;23.95;31.52
40117;BME280;25829;50.228;18.936;2023-06-01T15:10:03;98261.34;;;23.94;31.47
40117;BME280;25829;50.228;18.936;2023-06-01T15:13:03;98269.44;;;23.94;31.35
40117;BME280;25829;50.228;18.936;2023-06-01T15:16:05;98259.72;;;23.93;30.87
40117;BME280;25829;50.228;18.936;2023-06-01T15:19:08;98261.63;;;23.92;30.93
40117;BME280;25829;50.228;18.936;2023-06-01T15:22:09;98253.06;;;23.90;30.92
40117;BME280;25829;50.228;18.936;2023-06-01T15:25:10;98254.66;;;23.91;31.08
40117;BME280;25829;50.228;18.936;2023-06-01T15:28:11;98241.50;;;23.90;31.32
40117;BME280;25829;50.228;18.936;2023-06-01T15:31:12;98247.47;;;23.87;31.61
40117;BME280;25829;50.228;18.936;2023-06-01T15:34:12;98239.69;;;23.85;31.54
40117;BME280;25829;50.228;18.936;2023-06-01T15:37:19;98238.88;;;23.85;31.97
40117;BME280;25829;50.228;18.936;2023-06-01T15:40:20;98226.81;;;23.82;31.48
40117;BME280;25829;50.228;18.936;2023-06-01T15:43:23;98232.50;;;23.80;31.72
40117;BME280;25829;50.228;18.936;2023-06-01T15:46:24;98224.22;;;23.77;31.60
40117;BME280;25829;50.228;18.936;2023-06-01T15:49:25;98222.34;;;23.77;31.77
40117;BME280;25829;50.228;18.936;2023-06-01T15:52:26;98216.16;;;23.77;31.92
40117;BME280;25829;50.228;18.936;2023-06-01T15:55:27;98210.56;;;23.73;31.79
40117;BME280;25829;50.228;18.936;2023-06-01T15:58:28;98213.84;;;23.70;32.22
40117;BME280;25829;50.228;18.936;2023-06-01T16:01:29;98214.97;;;23.69;32.53
40117;BME280;25829;50.228;18.936;2023-06-01T16:04:30;98205.56;;;23.67;32.61
40117;BME280;25829;50.228;18.936;2023-06-01T16:07:33;98205.06;;;23.65;32.51
40117;BME280;25829;50.228;18.936;2023-06-01T16:10:46;98214.56;;;23.62;32.52
40117;BME280;25829;50.228;18.936;2023-06-01T16:13:47;98200.38;;;23.56;32.36
40117;BME280;25829;50.228;18.936;2023-06-01T16:16:48;98202.09;;;23.52;32.29
40117;BME280;25829;50.228;18.936;2023-06-01T16:23:13;98200.38;;;23.43;32.55
40117;BME280;25829;50.228;18.936;2023-06-01T16:26:19;98190.22;;;23.40;32.60
40117;BME280;25829;50.228;18.936;2023-06-01T16:33:06;98197.59;;;23.34;32.93
40117;BME280;25829;50.228;18.936;2023-06-01T16:36:13;98193.50;;;23.37;32.79